Time;durP1;ratioP1;P1;durP2;ratioP2;P2;SDS_P1;SDS_P2;PMS_P1;PMS_P2;Temp;Humidity;BMP_temperature;BMP_pressure;BME280_temperature;BME280_humidity;BME280_pressure;Samples;Min_cycle;Max_cycle;Signal;HPM_P1;HPM_P2
2023/01/17 00:02:13;;;;;;;41.33;20.95;;;;;;;3.09;78.40;93863.44;4989829;28;20045;-76
2023/01/17 00:10:22;;;;;;;37.35;18.95;;;;;;;3.96;78.29;93962.16;4993455;28;20060;-76
2023/01/17 00:12:51;;;;;;;37.33;18.05;;;;;;;3.02;78.25;93827.03;4969933;28;20427;-76
2023/01/17 00:15:18;;;;;;;34.22;16.95;;;;;;;3.29;77.96;93862.69;4987626;28;20030;-77
2023/01/17 00:17:45;;;;;;;30.15;16.33;;;;;;;3.97;77.86;93968.19;4988372;28;20082;-77
2023/01/17 00:26:03;;;;;;;31.00;15.63;;;;;;;3.85;78.21;93931.69;4991070;28;20041;-77
2023/01/17 01:35:25;;;;;;;30.33;16.77;;;;;;;3.85;78.81;93958.72;4981011;28;20196;-73
2023/01/17 01:37:51;;;;;;;29.00;16.52;;;;;;;3.89;78.60;93944.03;4985058;28;20042;-73
2023/01/17 01:40:17;;;;;;;32.13;17.15;;;;;;;3.41;78.88;93866.66;4960037;28;20039;-73
2023/01/17 01:42:51;;;;;;;34.35;16.38;;;;;;;3.84;78.62;93901.28;4987467;28;20038;-73
2023/01/17 01:45:25;;;;;;;30.05;15.90;;;;;;;3.84;78.41;93904.69;4973760;28;20114;-73
2023/01/17 01:48:01;;;;;;;28.98;16.10;;;;;;;3.67;78.37;93872.69;4973551;28;20069;-73
2023/01/17 01:50:29;;;;;;;29.65;15.27;;;;;;;3.79;78.54;93877.69;4990496;28;20487;-73
2023/01/17 01:52:59;;;;;;;27.58;15.35;;;;;;;3.57;78.37;93833.38;4990110;28;20038;-74
2023/01/17 01:55:39;;;;;;;29.40;15.70;;;;;;;3.94;78.80;93888.16;4966756;28;20464;-74
2023/01/17 01:58:13;;;;;;;32.80;16.70;;;;;;;3.78;79.83;93897.09;4968369;28;20497;-74
2023/01/17 02:00:40;;;;;;;37.25;17.80;;;;;;;3.79;79.51;93904.69;4972603;28;20042;-74
2023/01/17 02:03:11;;;;;;;32.70;17.40;;;;;;;3.74;80.45;93899.44;4982363;28;20520;-74
2023/01/17 02:05:37;;;;;;;31.90;16.55;;;;;;;3.54;80.28;93896.78;4961760;28;20034;-73
2023/01/17 02:08:06;;;;;;;31.13;16.88;;;;;;;3.58;79.62;93889.22;4980492;28;20038;-74
2023/01/17 02:10:38;;;;;;;32.05;16.55;;;;;;;3.73;79.66;93874.28;4982570;28;20050;-75
2023/01/17 02:13:05;;;;;;;32.03;16.23;;;;;;;3.75;79.97;93861.66;4991269;28;20046;-74
2023/01/17 02:15:35;;;;;;;30.15;15.75;;;;;;;3.64;80.70;93917.78;4990648;28;20502;-74
2023/01/17 02:18:10;;;;;;;32.65;16.90;;;;;;;3.68;80.49;93900.47;4982103;28;20066;-75
2023/01/17 02:20:57;;;;;;;33.35;16.70;;;;;;;3.41;80.54;93860.63;4972860;28;20062;-74
2023/01/17 02:24:00;;;;;;;28.73;15.18;;;;;;;3.79;80.45;93930.13;4957642;28;20034;-74
2023/01/17 02:26:57;;;;;;;31.50;15.88;;;;;;;3.78;80.17;93908.34;4973111;28;20125;-74
2023/01/17 02:29:40;;;;;;;31.52;15.43;;;;;;;3.89;80.27;93899.44;4945340;28;20046;-74
2023/01/17 02:32:20;;;;;;;32.10;15.50;;;;;;;3.71;80.37;93917.53;4959789;28;20045;-75
2023/01/17 02:35:24;;;;;;;33.58;16.33;;;;;;;3.57;81.42;93875.31;4954228;28;20084;-74
2023/01/17 02:38:05;;;;;;;31.92;15.13;;;;;;;3.33;81.06;93877.66;4969285;28;20113;-74
2023/01/17 02:40:41;;;;;;;31.83;15.67;;;;;;;3.36;81.32;93857.97;4972309;28;20436;-74
2023/01/17 02:43:13;;;;;;;32.85;15.95;;;;;;;3.72;81.41;93917.28;4990906;28;20481;-74
2023/01/17 02:45:39;;;;;;;32.65;17.00;;;;;;;3.34;81.19;93826.81;4983905;28;20041;-74
2023/01/17 02:48:06;;;;;;;31.30;17.10;;;;;;;3.43;81.29;93838.31;4990127;28;20089;-74
2023/01/17 02:50:52;;;;;;;31.65;17.13;;;;;;;3.45;81.38;93831.00;4988927;28;20045;-74
2023/01/17 02:53:29;;;;;;;33.75;16.23;;;;;;;3.91;81.87;93901.00;4990980;28;20056;-74
2023/01/17 02:56:08;;;;;;;34.25;17.30;;;;;;;3.66;81.47;93823.16;4989519;28;20026;-75
2023/01/17 02:58:45;;;;;;;34.60;18.10;;;;;;;3.89;81.51;93843.59;4986880;28;20041;-75
2023/01/17 03:01:26;;;;;;;29.52;15.15;;;;;;;3.09;81.07;93706.28;4984973;28;20539;-77
2023/01/17 03:03:54;;;;;;;32.47;16.80;;;;;;;3.99;81.74;93877.66;4987737;28;20038;-77
2023/01/17 03:06:26;;;;;;;28.85;15.57;;;;;;;4.01;81.40;93878.19;4987536;28;20054;-77
2023/01/17 03:08:52;;;;;;;30.05;16.73;;;;;;;3.75;81.37;93832.03;4978244;28;20495;-78
2023/01/17 03:11:17;;;;;;;30.00;16.83;;;;;;;3.34;81.35;93768.38;4982633;28;20042;-78
2023/01/17 03:13:43;;;;;;;32.17;17.25;;;;;;;3.31;81.87;93761.03;4985802;28;20177;-77
2023/01/17 03:16:16;;;;;;;32.10;16.85;;;;;;;3.25;81.82;93734.06;4989788;28;20058;-77
2023/01/17 03:18:41;;;;;;;31.02;16.27;;;;;;;4.02;81.83;93847.50;4989788;28;20504;-77
2023/01/17 03:21:07;;;;;;;29.23;15.70;;;;;;;3.98;82.03;93846.44;4987132;28;20045;-77
2023/01/17 03:23:32;;;;;;;32.15;16.00;;;;;;;3.37;82.00;93778.31;4989185;28;20088;-77
2023/01/17 03:25:57;;;;;;;32.63;15.18;;;;;;;3.89;82.00;93856.72;4971689;28;20482;-77
2023/01/17 03:28:23;;;;;;;28.80;15.52;;;;;;;3.70;82.40;93826.81;4987966;28;20030;-77
2023/01/17 03:30:48;;;;;;;29.05;15.95;;;;;;;3.12;82.34;93733.78;4989618;28;20113;-76
2023/01/17 03:33:16;;;;;;;28.92;16.52;;;;;;;3.78;82.36;93870.84;4979968;28;20444;-77
2023/01/17 03:35:44;;;;;;;34.17;17.80;;;;;;;3.54;82.36;93810.28;4975637;28;20031;-77
2023/01/17 03:38:09;;;;;;;31.48;16.02;;;;;;;3.63;83.06;93858.53;4961813;28;20037;-77
2023/01/17 03:40:35;;;;;;;34.30;16.73;;;;;;;3.80;83.25;93880.03;4960091;28;20027;-77
2023/01/17 03:43:00;;;;;;;29.38;16.50;;;;;;;3.15;82.56;93739.28;4960925;28;20046;-77
2023/01/17 03:45:25;;;;;;;30.30;16.63;;;;;;;3.76;83.36;93867.72;4980979;28;20027;-77
2023/01/17 03:47:52;;;;;;;35.30;16.98;;;;;;;3.53;83.09;93829.69;4983076;28;20404;-77
2023/01/17 03:50:18;;;;;;;30.10;16.58;;;;;;;3.83;83.56;93869.00;4984295;28;20076;-77
2023/01/17 03:52:44;;;;;;;34.17;17.92;;;;;;;3.33;83.68;93801.66;4983049;28;20504;-77
2023/01/17 03:55:09;;;;;;;32.08;17.27;;;;;;;3.80;83.04;93843.34;4985485;28;20046;-77
2023/01/17 03:57:35;;;;;;;32.60;16.73;;;;;;;3.83;83.10;93871.63;4986452;28;20105;-77
2023/01/17 04:00:00;;;;;;;30.85;17.45;;;;;;;3.57;83.18;93807.16;4989479;28;20117;-77
2023/01/17 04:02:26;;;;;;;30.58;16.55;;;;;;;3.89;83.14;93865.34;4988500;28;20042;-77
2023/01/17 04:04:51;;;;;;;28.85;16.27;;;;;;;3.79;83.12;93857.50;4967648;28;20034;-76
2023/01/17 04:07:17;;;;;;;30.08;15.82;;;;;;;3.76;82.99;93802.16;4971928;28;20121;-77
2023/01/17 04:09:42;;;;;;;34.45;17.50;;;;;;;3.95;83.08;93853.03;4988041;28;20092;-77
2023/01/17 04:12:08;;;;;;;32.88;16.50;;;;;;;3.81;82.74;93834.38;4977239;28;20460;-77
2023/01/17 04:14:34;;;;;;;25.75;14.30;;;;;;;4.06;82.24;93886.06;4980372;28;20706;-78
2023/01/17 04:17:00;;;;;;;29.50;16.30;;;;;;;3.78;81.97;93827.06;4981218;28;20536;-78
2023/01/17 04:19:25;;;;;;;29.10;16.27;;;;;;;3.78;82.14;93858.53;4993307;28;20161;-78
2023/01/17 04:21:51;;;;;;;28.13;14.95;;;;;;;4.15;81.67;93888.94;4983682;28;20101;-77
2023/01/17 04:24:16;;;;;;;30.83;16.38;;;;;;;3.97;81.31;93873.75;4966166;28;20489;-77
2023/01/17 04:26:42;;;;;;;25.13;14.85;;;;;;;4.17;81.31;93926.97;4965988;28;20476;-77
2023/01/17 04:29:07;;;;;;;28.55;15.63;;;;;;;4.31;81.33;93940.34;4991081;28;20042;-77
2023/01/17 04:31:32;;;;;;;28.40;14.95;;;;;;;3.99;80.96;93858.50;4992928;28;20416;-77
2023/01/17 04:33:58;;;;;;;28.40;15.50;;;;;;;3.81;81.88;93834.38;4978157;28;20133;-78
2023/01/17 04:36:23;;;;;;;32.67;15.80;;;;;;;4.09;82.30;93897.88;4989795;28;20409;-78
2023/01/17 04:38:48;;;;;;;27.17;15.55;;;;;;;3.91;81.72;93877.41;4970693;28;20046;-78
2023/01/17 04:41:14;;;;;;;36.08;16.02;;;;;;;3.88;81.81;93839.41;4976565;28;20031;-77
2023/01/17 04:43:39;;;;;;;32.78;16.25;;;;;;;4.16;81.81;93885.25;4988848;28;20550;-77
2023/01/17 04:46:08;;;;;;;31.85;15.80;;;;;;;3.99;81.71;93890.00;4974986;28;20173;-77
2023/01/17 04:48:34;;;;;;;26.23;15.13;;;;;;;3.84;80.93;93844.38;4983392;28;20501;-78
2023/01/17 04:51:00;;;;;;;27.95;15.20;;;;;;;4.41;81.24;93931.69;4967532;28;20034;-78
2023/01/17 04:53:26;;;;;;;29.95;15.93;;;;;;;4.21;80.99;93880.78;4991667;28;20125;-78
2023/01/17 04:55:52;;;;;;;30.65;15.05;;;;;;;4.23;80.71;93857.69;4974696;28;20109;-77
2023/01/17 04:58:17;;;;;;;37.15;16.42;;;;;;;3.88;80.58;93824.44;4983706;28;20556;-77
2023/01/17 05:00:42;;;;;;;28.33;14.88;;;;;;;3.98;80.72;93873.47;4980630;28;20104;-77
2023/01/17 05:03:08;;;;;;;26.67;14.55;;;;;;;4.28;80.79;93883.91;4967296;28;20038;-77
2023/01/17 05:05:33;;;;;;;30.25;14.52;;;;;;;4.08;80.86;93865.59;4982572;28;20438;-77
2023/01/17 05:08:02;;;;;;;26.77;15.30;;;;;;;4.08;81.21;93885.78;4962749;28;20559;-77
2023/01/17 05:10:27;;;;;;;27.95;15.48;;;;;;;4.41;80.99;93927.22;4988109;28;20126;-77
2023/01/17 05:12:57;;;;;;;31.85;16.48;;;;;;;4.26;80.72;93920.16;4989304;28;20084;-77
2023/01/17 05:15:23;;;;;;;26.45;15.30;;;;;;;4.57;80.40;93939.28;4960187;28;20085;-77
2023/01/17 05:17:51;;;;;;;32.00;15.10;;;;;;;4.48;80.20;93922.47;4981433;28;20082;-78
2023/01/17 05:20:17;;;;;;;37.72;16.02;;;;;;;4.55;80.04;93907.25;4958997;28;20501;-77
2023/01/17 05:22:42;;;;;;;24.88;14.75;;;;;;;4.71;79.65;93962.34;4952580;28;20034;-77
2023/01/17 05:25:08;;;;;;;27.30;14.98;;;;;;;4.34;79.87;93905.72;4975620;28;20030;-78
2023/01/17 05:27:33;;;;;;;28.42;15.23;;;;;;;4.59;79.35;93928.47;4963170;28;20238;-78
2023/01/17 05:30:02;;;;;;;27.35;15.43;;;;;;;4.65;79.73;93928.19;4953930;28;20450;-78
2023/01/17 05:32:27;;;;;;;27.30;14.07;;;;;;;4.56;79.61;93910.66;4969081;28;20548;-77
2023/01/17 05:34:53;;;;;;;23.42;13.43;;;;;;;4.47;79.69;93904.38;4973865;28;20108;-78
2023/01/17 05:37:18;;;;;;;24.25;12.98;;;;;;;4.61;79.82;93927.16;4975661;28;20092;-78
2023/01/17 05:39:45;;;;;;;24.90;13.85;;;;;;;4.41;79.77;93894.94;4958472;28;20056;-78
2023/01/17 05:42:10;;;;;;;25.08;13.68;;;;;;;4.32;80.12;93872.91;4962968;28;20480;-78
2023/01/17 05:44:37;;;;;;;31.35;16.33;;;;;;;4.43;79.64;93893.59;4977538;28;20030;-78
2023/01/17 05:47:02;;;;;;;27.75;15.32;;;;;;;4.65;80.20;93935.31;4981254;28;20058;-78
2023/01/17 05:49:28;;;;;;;27.70;13.95;;;;;;;4.71;80.65;93912.44;4963189;28;20481;-78
2023/01/17 05:51:53;;;;;;;32.17;16.67;;;;;;;4.62;80.22;93914.84;4980613;28;20515;-81
2023/01/17 05:54:19;;;;;;;30.33;16.33;;;;;;;4.40;80.79;93870.53;4975795;28;20035;-77
2023/01/17 05:56:44;;;;;;;31.48;15.75;;;;;;;3.80;80.04;93754.16;4978034;28;20067;-78
2023/01/17 05:59:09;;;;;;;26.00;14.77;;;;;;;4.32;80.30;93823.81;4971656;28;20254;-77
2023/01/17 06:01:35;;;;;;;36.25;15.85;;;;;;;4.58;79.60;93820.03;4960485;28;20141;-81
2023/01/17 06:04:00;;;;;;;26.55;15.63;;;;;;;4.48;80.03;93856.84;4968753;28;20418;-77
2023/01/17 06:06:26;;;;;;;38.00;16.23;;;;;;;4.58;79.66;93862.03;4975878;28;20520;-79
2023/01/17 06:08:51;;;;;;;41.35;16.58;;;;;;;4.62;80.26;93855.22;4960784;28;20261;-79
2023/01/17 06:11:18;;;;;;;34.92;16.67;;;;;;;3.99;80.35;93785.84;4972094;28;20045;-78
2023/01/17 06:13:44;;;;;;;27.35;14.90;;;;;;;4.59;80.68;93868.09;4967673;28;20045;-82
2023/01/17 06:16:09;;;;;;;31.63;15.77;;;;;;;4.02;80.51;93764.34;4952512;28;20755;-80
2023/01/17 06:18:35;;;;;;;33.50;15.05;;;;;;;4.08;79.83;93758.03;4973625;28;20156;-81
2023/01/17 06:21:00;;;;;;;32.42;15.35;;;;;;;4.20;79.40;93765.59;4962218;28;20038;-81
2023/01/17 06:23:27;;;;;;;26.80;14.68;;;;;;;3.72;79.53;93694.41;4970303;28;20104;-81
2023/01/17 06:25:53;;;;;;;32.08;15.93;;;;;;;5.02;78.71;93850.84;4973959;28;20030;-81
2023/01/17 06:28:21;;;;;;;32.40;14.95;;;;;;;4.55;79.14;93788.31;4974356;28;20040;-82
2023/01/17 06:30:46;;;;;;;25.65;13.82;;;;;;;4.39;79.00;93735.06;4970972;28;20444;-82
2023/01/17 06:33:13;;;;;;;35.08;16.83;;;;;;;4.98;78.99;93863.72;4956832;28;20383;-82
2023/01/17 06:35:39;;;;;;;27.17;14.80;;;;;;;4.32;79.47;93794.16;4956813;28;20038;-80
2023/01/17 06:38:06;;;;;;;35.92;14.50;;;;;;;4.82;78.77;93856.97;4954856;28;20517;-81
2023/01/17 06:40:31;;;;;;;32.47;15.63;;;;;;;4.57;78.72;93818.50;4938241;28;20097;-80
2023/01/17 06:43:01;;;;;;;36.83;15.65;;;;;;;5.20;78.95;93917.75;4958801;28;20074;-81
2023/01/17 06:45:28;;;;;;;35.00;16.67;;;;;;;5.23;78.76;93933.00;4968210;28;20030;-82
2023/01/17 06:47:54;;;;;;;29.70;15.63;;;;;;;4.53;78.45;93801.69;4972483;28;20038;-81
2023/01/17 06:50:20;;;;;;;49.53;16.13;;;;;;;5.30;78.62;93926.41;4974778;28;20046;-82
2023/01/17 06:52:58;;;;;;;31.83;14.75;;;;;;;4.90;78.30;93860.88;4950345;28;20256;-81
2023/01/17 06:55:27;;;;;;;34.55;16.13;;;;;;;5.32;77.38;93915.63;4953656;28;20080;-81
2023/01/17 06:57:53;;;;;;;30.02;16.35;;;;;;;5.27;77.98;93919.03;4975098;28;20448;-82
2023/01/17 07:00:19;;;;;;;36.95;16.65;;;;;;;4.53;77.87;93819.28;4947837;28;20041;-83
2023/01/17 07:02:48;;;;;;;36.70;16.58;;;;;;;4.46;78.50;93821.41;4951709;28;20039;-78
2023/01/17 07:05:16;;;;;;;48.03;17.50;;;;;;;4.94;77.58;93885.56;4963675;28;20030;-80
2023/01/17 07:07:42;;;;;;;33.25;16.13;;;;;;;5.11;77.76;93882.63;4946259;28;20049;-79
2023/01/17 07:10:08;;;;;;;33.35;17.27;;;;;;;5.04;77.23;93854.75;4949538;28;20058;-79
2023/01/17 07:12:33;;;;;;;36.35;16.67;;;;;;;5.46;76.95;93905.28;4958138;28;20039;-80
2023/01/17 07:14:59;;;;;;;55.63;16.70;;;;;;;5.65;77.15;93920.13;4966329;28;20030;-82
2023/01/17 07:17:24;;;;;;;35.15;16.38;;;;;;;4.72;77.25;93769.59;4951713;28;20483;-80
2023/01/17 07:19:49;;;;;;;34.42;17.17;;;;;;;5.68;77.45;93910.94;4964174;28;20034;-80
2023/01/17 07:22:15;;;;;;;37.78;16.70;;;;;;;5.03;77.41;93816.41;4959670;28;20057;-82
2023/01/17 07:24:40;;;;;;;36.35;16.40;;;;;;;5.22;77.71;93852.56;4973369;28;20061;-78
2023/01/17 07:27:06;;;;;;;30.88;14.27;;;;;;;5.68;77.67;93926.72;4952419;28;20152;-80
2023/01/17 07:29:31;;;;;;;32.13;15.65;;;;;;;4.94;77.86;93791.00;4967961;28;20096;-80
2023/01/17 07:31:57;;;;;;;44.25;14.50;;;;;;;5.42;76.80;93849.81;4949798;28;20037;-80
2023/01/17 07:34:22;;;;;;;33.42;14.95;;;;;;;5.93;77.07;93938.94;4973146;28;20050;-79
2023/01/17 07:36:48;;;;;;;21.98;10.60;;;;;;;5.49;76.28;93870.56;4970296;28;20042;-79
2023/01/17 07:39:14;;;;;;;30.70;12.00;;;;;;;6.16;75.67;93935.63;4971138;28;20100;-81
2023/01/17 07:41:41;;;;;;;27.10;12.05;;;;;;;6.00;75.93;93906.00;4967598;28;20493;-81
2023/01/17 07:44:09;;;;;;;23.52;11.18;;;;;;;6.17;75.76;93902.97;4971582;28;20029;-82
2023/01/17 07:46:34;;;;;;;30.05;11.15;;;;;;;6.55;75.34;93925.78;4959780;28;20196;-81
2023/01/17 07:49:00;;;;;;;24.73;12.40;;;;;;;6.19;74.75;93861.34;4956133;28;20542;-80
2023/01/17 07:51:25;;;;;;;48.08;12.75;;;;;;;6.20;74.42;93850.53;4953743;28;20037;-81
2023/01/17 07:53:51;;;;;;;31.75;13.60;;;;;;;6.30;74.47;93867.28;4969105;28;20042;-80
2023/01/17 07:56:16;;;;;;;26.65;10.35;;;;;;;6.50;74.34;93865.25;4975406;28;20125;-78
2023/01/17 07:58:42;;;;;;;26.75;11.73;;;;;;;7.03;74.14;93933.69;4957167;28;20117;-84
2023/01/17 08:01:10;;;;;;;24.35;10.45;;;;;;;7.17;73.69;93931.19;4955419;28;20105;-83
2023/01/17 08:03:38;;;;;;;28.35;9.90;;;;;;;6.50;72.70;93827.56;4978063;28;20093;-85
2023/01/17 08:06:06;;;;;;;31.08;12.18;;;;;;;6.80;72.70;93858.06;4977040;28;20484;-80
2023/01/17 08:08:38;;;;;;;38.13;12.55;;;;;;;6.90;72.34;93863.22;4980549;28;20038;-87
2023/01/17 08:11:03;;;;;;;33.53;10.30;;;;;;;7.50;71.72;93940.00;4959263;28;20436;-79
2023/01/17 08:13:28;;;;;;;24.17;9.80;;;;;;;6.69;71.76;93817.09;4958389;28;20041;-81
2023/01/17 08:15:54;;;;;;;42.30;11.30;;;;;;;6.48;71.41;93763.88;4966765;28;20066;-80
2023/01/17 08:18:19;;;;;;;33.10;9.38;;;;;;;7.19;71.22;93863.13;4954310;28;20456;-81
2023/01/17 08:20:45;;;;;;;28.98;11.02;;;;;;;7.84;70.47;93950.38;4953256;28;20053;-78
2023/01/17 08:23:11;;;;;;;48.78;22.38;;;;;;;7.56;70.70;93894.00;4973455;28;20034;-79
2023/01/17 08:25:36;;;;;;;26.73;10.80;;;;;;;7.58;70.45;93915.59;4968400;28;20038;-83
2023/01/17 08:28:02;;;;;;;33.20;12.07;;;;;;;7.94;70.72;93945.69;4974342;28;20042;-80
2023/01/17 08:30:27;;;;;;;21.92;5.43;;;;;;;7.67;67.16;93859.28;4960464;28;20484;-81
2023/01/17 08:32:53;;;;;;;12.95;5.50;;;;;;;7.68;66.77;93833.69;4979205;28;20042;-82
2023/01/17 08:35:19;;;;;;;10.73;3.97;;;;;;;8.44;67.33;93938.09;4973968;28;20759;-82
2023/01/17 08:37:46;;;;;;;14.43;4.40;;;;;;;8.28;66.47;93902.41;4954495;28;20547;-82
2023/01/17 08:40:15;;;;;;;12.73;4.65;;;;;;;8.14;66.19;93874.13;4972948;28;20046;-81
2023/01/17 08:42:42;;;;;;;8.85;3.08;;;;;;;8.98;64.61;93976.31;4970773;28;20124;-82
2023/01/17 08:45:10;;;;;;;9.82;3.63;;;;;;;8.89;64.80;93955.81;4958023;28;20121;-80
2023/01/17 08:47:36;;;;;;;12.32;6.35;;;;;;;8.68;65.56;93906.25;4969831;28;20042;-81
2023/01/17 08:50:05;;;;;;;21.08;5.28;;;;;;;8.45;64.81;93871.78;4961822;28;20098;-82
2023/01/17 08:52:31;;;;;;;13.88;4.57;;;;;;;8.80;64.52;93896.75;4975171;28;20045;-80
2023/01/17 08:54:56;;;;;;;16.70;4.55;;;;;;;9.26;64.29;93972.59;4953829;28;20594;-80
2023/01/17 08:57:22;;;;;;;9.80;2.95;;;;;;;9.04;63.07;93909.00;4970355;28;20034;-83
2023/01/17 08:59:47;;;;;;;16.95;2.83;;;;;;;8.97;62.71;93864.47;4956107;28;20034;-77
2023/01/17 09:02:14;;;;;;;3.88;1.58;;;;;;;10.01;61.09;93972.09;4963957;28;20049;-80
2023/01/17 09:04:44;;;;;;;6.03;1.85;;;;;;;9.63;60.87;93884.22;4949916;28;20166;-78
2023/01/17 09:07:09;;;;;;;13.75;2.72;;;;;;;9.95;61.30;93930.94;4964196;28;20078;-77
2023/01/17 09:09:34;;;;;;;13.27;2.72;;;;;;;10.07;61.11;93958.44;4972677;28;20544;-77
2023/01/17 09:12:00;;;;;;;18.70;4.20;;;;;;;9.76;61.68;93909.13;4970544;28;20038;-78
2023/01/17 09:14:25;;;;;;;3.55;2.30;;;;;;;10.26;59.73;93954.88;4958233;28;20035;-76
2023/01/17 09:16:51;;;;;;;5.47;1.55;;;;;;;10.05;60.10;93899.72;4972640;28;20475;-78
2023/01/17 09:19:17;;;;;;;7.13;2.22;;;;;;;10.38;59.35;93953.25;4954749;28;20052;-78
2023/01/17 09:21:42;;;;;;;2.63;1.58;;;;;;;9.98;58.77;93875.50;4953814;28;20234;-78
2023/01/17 09:24:07;;;;;;;4.57;2.35;;;;;;;10.32;58.84;93911.28;4973502;28;20036;-77
2023/01/17 09:26:33;;;;;;;6.70;2.20;;;;;;;10.33;59.13;93886.34;4973063;28;20039;-78
2023/01/17 09:28:58;;;;;;;8.80;3.67;;;;;;;10.52;59.64;93931.22;4974373;28;20042;-78
2023/01/17 09:31:25;;;;;;;12.48;3.63;;;;;;;10.57;59.67;93917.84;4975078;28;20905;-78
2023/01/17 09:33:52;;;;;;;18.45;5.10;;;;;;;10.37;60.57;93909.31;4971609;28;20076;-78
2023/01/17 09:36:18;;;;;;;12.15;4.85;;;;;;;10.40;59.91;93899.94;4957293;28;20448;-78
2023/01/17 09:38:44;;;;;;;15.45;4.80;;;;;;;10.61;59.45;93934.69;4976991;28;20137;-81
2023/01/17 09:41:27;;;;;;;12.55;4.75;;;;;;;10.74;59.71;93923.25;4979988;28;20478;-80
2023/01/17 09:44:05;;;;;;;10.27;5.20;;;;;;;10.60;59.78;93893.38;4951637;28;20185;-78
2023/01/17 09:46:36;;;;;;;11.75;4.60;;;;;;;10.31;60.10;93854.06;4972680;28;20101;-82
2023/01/17 09:49:11;;;;;;;11.47;4.97;;;;;;;10.31;59.56;93843.47;4969509;28;20359;-79
2023/01/17 09:51:37;;;;;;;12.52;5.70;;;;;;;10.79;59.57;93920.44;4962465;28;20624;-77
2023/01/17 09:54:05;;;;;;;9.98;4.55;;;;;;;10.24;59.40;93819.28;4971974;28;20614;-80
2023/01/17 09:56:36;;;;;;;12.82;4.57;;;;;;;9.95;59.61;93817.84;4954089;28;20037;-79
2023/01/17 09:59:01;;;;;;;37.03;8.20;;;;;;;10.70;58.92;93933.66;4958276;28;20301;-80
2023/01/17 10:01:43;;;;;;;28.52;7.50;;;;;;;10.52;58.78;93918.75;4959819;28;20156;-81
2023/01/17 10:04:32;;;;;;;35.63;10.32;;;;;;;10.62;58.79;93944.22;4965169;28;20073;-80
2023/01/17 10:07:12;;;;;;;28.50;10.13;;;;;;;9.87;58.75;93826.50;4973628;28;20136;-79
2023/01/17 10:10:03;;;;;;;33.13;10.35;;;;;;;10.70;58.98;93943.47;4973866;28;20038;-80
2023/01/17 10:12:47;;;;;;;32.30;10.00;;;;;;;10.64;58.83;93934.09;4953754;28;20049;-81
2023/01/17 10:15:18;;;;;;;19.33;8.30;;;;;;;10.60;58.81;93914.59;4958956;28;20038;-80
2023/01/17 10:18:13;;;;;;;22.70;8.85;;;;;;;10.62;59.43;93938.91;4974002;28;20296;-79
2023/01/17 10:21:10;;;;;;;18.63;8.65;;;;;;;10.68;59.07;93940.38;4926371;28;20065;-79
2023/01/17 10:24:15;;;;;;;25.48;10.55;;;;;;;10.67;58.98;93946.75;4969092;28;20087;-80
2023/01/17 10:26:42;;;;;;;38.92;14.52;;;;;;;10.15;60.36;93879.34;4957336;28;20049;-82
2023/01/17 10:29:16;;;;;;;35.00;10.30;;;;;;;10.52;60.54;93937.31;4957609;28;20045;-84
2023/01/17 10:31:50;;;;;;;33.40;10.80;;;;;;;10.00;60.37;93851.34;4976580;28;20042;-78
2023/01/17 10:34:24;;;;;;;25.42;9.15;;;;;;;9.28;60.29;93750.88;4966932;28;20074;-81
2023/01/17 10:37:01;;;;;;;23.83;6.70;;;;;;;10.24;60.62;93910.13;4948872;28;20050;-78
2023/01/17 10:39:29;;;;;;;16.33;5.90;;;;;;;10.23;59.90;93897.97;4971976;28;20421;-79
2023/01/17 10:41:57;;;;;;;12.73;3.90;;;;;;;10.36;59.43;93947.50;4956372;28;20488;-78
2023/01/17 10:44:55;;;;;;;21.08;5.68;;;;;;;10.41;59.36;93930.69;4971646;28;20092;-78
2023/01/17 10:47:23;;;;;;;6.65;2.15;;;;;;;9.93;57.93;93850.97;4936614;28;20691;-78
2023/01/17 10:49:53;;;;;;;12.70;3.42;;;;;;;10.52;58.89;93920.63;4974483;28;20084;-78
2023/01/17 10:52:28;;;;;;;18.93;3.80;;;;;;;10.58;58.46;93916.75;4973631;28;20030;-78
2023/01/17 10:55:02;;;;;;;16.33;4.03;;;;;;;10.62;57.99;93921.13;4969295;28;20294;-78
2023/01/17 10:57:33;;;;;;;20.67;3.85;;;;;;;10.24;57.87;93846.53;4975613;28;20038;-79
2023/01/17 11:00:00;;;;;;;13.77;5.28;;;;;;;10.71;57.70;93905.28;4958277;28;20129;-78
2023/01/17 11:02:38;;;;;;;27.88;5.65;;;;;;;9.98;58.50;93803.22;4972950;28;20038;-79
2023/01/17 11:05:20;;;;;;;21.05;5.03;;;;;;;10.39;58.13;93853.34;4952068;28;20031;-78
2023/01/17 11:08:10;;;;;;;8.13;2.67;;;;;;;10.84;57.02;93930.91;4976025;28;20125;-77
2023/01/17 11:10:53;;;;;;;3.33;1.77;;;;;;;10.62;56.69;93870.75;4971740;28;20119;-77
2023/01/17 11:13:37;;;;;;;2.40;1.15;;;;;;;10.99;54.47;93884.63;4954974;28;20070;-78
2023/01/17 11:16:09;;;;;;;3.03;1.45;;;;;;;10.75;54.09;93798.31;4960936;28;20185;-77
2023/01/17 11:18:42;;;;;;;5.88;1.60;;;;;;;10.37;54.61;93770.72;4983400;28;20053;-79
2023/01/17 11:21:15;;;;;;;3.65;1.55;;;;;;;11.28;54.39;93887.56;4982822;28;20138;-79
2023/01/17 11:23:55;;;;;;;2.78;1.55;;;;;;;11.37;54.80;93875.06;4983907;28;20034;-78
2023/01/17 11:26:26;;;;;;;4.15;1.70;;;;;;;11.46;53.65;93893.66;4993760;28;20040;-78
2023/01/17 11:28:52;;;;;;;7.40;1.85;;;;;;;11.22;54.03;93825.88;4991717;28;20042;-78
2023/01/17 11:31:17;;;;;;;5.70;2.25;;;;;;;11.50;54.24;93866.22;4982540;28;20236;-77
2023/01/17 11:33:45;;;;;;;4.95;1.98;;;;;;;11.12;54.18;93796.22;4990272;28;20263;-76
2023/01/17 11:36:31;;;;;;;6.47;1.23;;;;;;;11.74;52.20;93835.78;4992299;28;20211;-76
2023/01/17 11:38:58;;;;;;;5.85;1.30;;;;;;;11.80;52.55;93845.94;4993036;28;20144;-77
2023/01/17 11:41:26;;;;;;;3.88;1.25;;;;;;;11.70;52.37;93806.38;4990231;28;20649;-76
2023/01/17 11:43:57;;;;;;;3.85;1.20;;;;;;;11.96;50.97;93817.03;4995873;28;20578;-77
2023/01/17 11:46:24;;;;;;;2.28;1.38;;;;;;;11.65;51.19;93765.94;4991945;28;20303;-77
2023/01/17 11:48:55;;;;;;;3.13;1.40;;;;;;;11.84;51.77;93796.41;4988590;28;20402;-78
2023/01/17 11:51:28;;;;;;;6.30;1.55;;;;;;;11.91;51.77;93811.88;4993689;28;20497;-78
2023/01/17 11:54:05;;;;;;;11.15;1.85;;;;;;;12.05;51.43;93806.41;4997555;28;20045;-78
2023/01/17 11:56:35;;;;;;;4.35;1.15;;;;;;;12.04;51.31;93802.19;4994236;28;20041;-77
2023/01/17 11:59:23;;;;;;;7.03;1.15;;;;;;;12.16;51.21;93824.34;4988819;28;20040;-76
2023/01/17 12:02:03;;;;;;;3.63;1.00;;;;;;;12.22;50.43;93783.22;4991742;28;20469;-77
2023/01/17 12:04:54;;;;;;;2.90;1.52;;;;;;;11.87;49.88;93733.91;4992059;28;20057;-78
2023/01/17 12:07:41;;;;;;;8.07;1.55;;;;;;;11.92;50.56;93723.88;4988933;28;20213;-76
2023/01/17 12:10:12;;;;;;;3.08;1.23;;;;;;;12.36;50.44;93798.97;4989517;28;20042;-77
2023/01/17 12:18:53;;;;;;;3.92;1.15;;;;;;;12.22;49.04;93779.78;4972263;28;20137;-80
2023/01/17 12:21:34;;;;;;;3.08;0.90;;;;;;;12.56;47.68;93739.00;4955113;28;20034;-79
2023/01/17 12:24:29;;;;;;;3.92;1.25;;;;;;;12.48;49.17;93751.22;4964360;28;20114;-81
2023/01/17 12:27:25;;;;;;;8.27;2.03;;;;;;;12.37;50.36;93736.72;4953677;28;20722;-77
2023/01/17 12:30:09;;;;;;;6.68;1.20;;;;;;;12.48;49.28;93771.72;4951442;28;20053;-77
2023/01/17 12:32:55;;;;;;;4.25;1.35;;;;;;;12.47;49.81;93744.34;4959495;28;20054;-78
2023/01/17 12:35:37;;;;;;;2.35;1.25;;;;;;;12.49;48.60;93755.47;4954831;28;20057;-78
2023/01/17 12:38:11;;;;;;;;;;;;;;;12.54;47.98;93757.94;4955293;28;20026;-78
2023/01/17 12:40:48;;;;;;;6.93;1.85;;;;;;;12.30;47.77;93707.97;4955914;28;20139;-78
2023/01/17 12:43:19;;;;;;;4.82;1.50;;;;;;;12.52;48.28;93738.84;4969814;28;20117;-77
2023/01/17 12:45:48;;;;;;;9.13;2.50;;;;;;;12.31;48.42;93674.97;4964381;28;20026;-78
2023/01/17 12:48:19;;;;;;;10.18;2.00;;;;;;;12.40;48.39;93682.13;4971313;28;20070;-78
2023/01/17 12:51:23;;;;;;;5.65;2.05;;;;;;;12.88;48.33;93753.56;4968681;28;20093;-77
2023/01/17 12:54:07;;;;;;;2.40;1.20;;;;;;;13.00;48.34;93750.97;4951631;28;21326;-77
2023/01/17 12:56:47;;;;;;;6.78;1.95;;;;;;;12.80;48.91;93707.28;4968758;28;20355;-78
2023/01/17 12:59:24;;;;;;;8.30;3.83;;;;;;;12.92;49.80;93733.16;4955304;28;20424;-78
2023/01/17 13:01:56;;;;;;;10.18;3.95;;;;;;;12.96;49.80;93750.06;4970377;28;20042;-77
2023/01/17 13:04:21;;;;;;;7.10;4.07;;;;;;;12.85;49.15;93759.50;4950307;28;20124;-76
2023/01/17 13:07:05;;;;;;;15.88;3.28;;;;;;;12.93;48.56;93746.16;4958740;28;20084;-76